createdAt,value
2022-12-11T00:04:09.637Z,20.00
2022-12-11T00:09:12.413Z,18.10
2022-12-11T00:14:17.410Z,18.90
2022-12-11T00:19:19.441Z,20.60
2022-12-11T00:24:21.341Z,20.60
2022-12-11T00:29:23.049Z,18.80
2022-12-11T00:34:29.545Z,19.10
2022-12-11T00:39:31.254Z,17.20
2022-12-11T00:44:33.080Z,17.70
2022-12-11T00:49:34.825Z,15.20
2022-12-11T00:54:36.503Z,17.40
2022-12-11T00:59:38.698Z,16.80
2022-12-11T01:04:40.386Z,13.80
2022-12-11T01:10:00.797Z,18.50
2022-12-11T01:15:02.770Z,16.50
2022-12-11T01:20:05.517Z,19.50
2022-12-11T01:25:09.793Z,18.40
2022-12-11T01:30:13.237Z,18.00
2022-12-11T01:35:15.899Z,15.40
2022-12-11T01:40:19.728Z,15.50
2022-12-11T01:45:21.370Z,14.00
2022-12-11T01:50:23.759Z,16.60
2022-12-11T01:55:25.699Z,14.40
2022-12-11T02:00:27.502Z,15.80
2022-12-11T02:05:29.337Z,14.70
2022-12-11T02:10:43.758Z,14.00
2022-12-11T02:15:49.894Z,16.50
2022-12-11T02:21:01.201Z,17.00
2022-12-11T02:26:18.279Z,15.70
2022-12-11T02:31:58.622Z,15.10
2022-12-11T02:37:07.796Z,15.90
2022-12-11T02:42:11.443Z,14.90
2022-12-11T02:47:16.782Z,17.00
2022-12-11T02:52:22.308Z,15.80
2022-12-11T02:57:37.346Z,15.70
2022-12-11T03:02:41.285Z,15.40
2022-12-11T03:07:44.569Z,15.20
2022-12-11T03:12:53.643Z,17.30
2022-12-11T03:18:11.140Z,13.80
2022-12-11T03:23:22.901Z,14.50
2022-12-11T03:28:31.309Z,14.10
2022-12-11T03:33:38.626Z,15.60
2022-12-11T03:38:51.462Z,15.30
2022-12-11T03:43:57.489Z,18.90
2022-12-11T03:49:03.921Z,16.90
2022-12-11T03:54:06.995Z,18.60
2022-12-11T03:59:09.086Z,17.10
2022-12-11T04:04:11.177Z,16.80
2022-12-11T04:09:12.996Z,17.50
2022-12-11T04:14:33.848Z,17.90
2022-12-11T04:19:54.676Z,17.60
2022-12-11T04:24:56.587Z,17.90
2022-12-11T04:29:58.648Z,17.10
2022-12-11T04:35:00.395Z,16.80
2022-12-11T04:40:04.220Z,16.00
2022-12-11T04:45:08.260Z,16.90
2022-12-11T04:50:13.257Z,15.20
2022-12-11T04:55:15.114Z,13.00
2022-12-11T05:00:17.547Z,16.80
2022-12-11T05:05:19.462Z,17.40
2022-12-11T05:10:21.186Z,17.40
2022-12-11T05:15:23.381Z,15.20
2022-12-11T05:20:25.219Z,16.40
2022-12-11T05:25:27.000Z,16.00
2022-12-11T05:30:28.857Z,18.80
2022-12-11T05:35:30.524Z,18.30
2022-12-11T05:40:32.271Z,15.00
2022-12-11T05:45:34.704Z,26.40
2022-12-11T05:50:36.475Z,24.60
2022-12-11T05:55:42.489Z,23.70
2022-12-11T06:00:44.732Z,21.70
2022-12-11T06:05:46.521Z,18.90
2022-12-11T06:10:49.865Z,16.20
2022-12-11T06:15:52.193Z,13.60
2022-12-11T06:20:54.636Z,14.90
2022-12-11T06:25:56.307Z,15.10
2022-12-11T06:31:02.722Z,14.40
2022-12-11T06:36:06.945Z,13.70
2022-12-11T06:41:09.482Z,15.30
2022-12-11T06:46:15.715Z,14.50
2022-12-11T06:51:20.060Z,15.20
2022-12-11T06:56:22.906Z,16.70
2022-12-11T07:01:27.405Z,16.00
2022-12-11T07:06:29.644Z,17.10
2022-12-11T07:11:31.869Z,18.20
2022-12-11T07:16:33.833Z,21.60
2022-12-11T07:21:35.639Z,18.70
2022-12-11T07:26:37.317Z,19.30
2022-12-11T07:31:39.270Z,17.80
2022-12-11T07:36:42.342Z,20.30
2022-12-11T07:41:43.998Z,18.70
2022-12-11T07:46:45.884Z,15.80
2022-12-11T07:51:47.687Z,17.20
2022-12-11T07:56:53.409Z,16.70
2022-12-11T08:01:55.432Z,16.40
2022-12-11T08:06:57.650Z,12.60
2022-12-11T08:11:59.375Z,14.90
2022-12-11T08:17:02.438Z,13.70
2022-12-11T08:22:04.240Z,14.90
2022-12-11T08:27:06.707Z,14.10
2022-12-11T08:32:12.227Z,14.90
2022-12-11T08:37:14.509Z,14.80
2022-12-11T08:42:16.360Z,12.40
2022-12-11T08:47:18.773Z,15.00
2022-12-11T08:52:21.227Z,13.00
2022-12-11T08:57:22.994Z,14.20
2022-12-11T09:02:24.931Z,15.30
2022-12-11T09:07:27.338Z,13.20
2022-12-11T09:12:29.309Z,14.30
2022-12-11T09:17:31.189Z,14.50
2022-12-11T09:22:33.955Z,13.80
2022-12-11T09:27:35.796Z,14.50
2022-12-11T09:32:37.719Z,14.50
2022-12-11T09:37:39.476Z,14.70
2022-12-11T09:42:51.102Z,14.50
2022-12-11T09:47:56.625Z,13.70
2022-12-11T09:53:21.903Z,15.30
2022-12-11T09:58:54.549Z,15.20
2022-12-11T10:04:09.523Z,12.50
2022-12-11T10:09:28.963Z,12.70
2022-12-11T10:14:47.948Z,12.80
2022-12-11T10:19:50.143Z,14.10
2022-12-11T10:25:15.318Z,14.30
2022-12-11T10:30:37.968Z,12.00
2022-12-11T10:35:51.088Z,13.20
2022-12-11T10:40:59.136Z,12.50
2022-12-11T10:46:01.277Z,12.60
2022-12-11T10:51:07.202Z,14.00
2022-12-11T10:56:09.302Z,13.90
2022-12-11T11:01:16.450Z,14.50
2022-12-11T11:06:21.428Z,12.80
2022-12-11T11:11:28.436Z,12.20
2022-12-11T11:16:30.347Z,13.90
2022-12-11T11:21:33.042Z,14.20
2022-12-11T11:27:04.766Z,13.70
2022-12-11T11:31:57.329Z,13.60
2022-12-11T11:37:01.092Z,13.40
2022-12-11T11:42:21.151Z,12.50
2022-12-11T11:47:30.425Z,13.90
2022-12-11T11:52:54.368Z,13.90
2022-12-11T11:58:24.337Z,16.90
2022-12-11T12:03:27.835Z,17.20
2022-12-11T12:08:46.546Z,16.50
2022-12-11T12:14:50.687Z,14.40
2022-12-11T12:20:10.549Z,15.70
2022-12-11T12:25:35.900Z,14.10
2022-12-11T12:30:51.812Z,13.40
2022-12-11T12:36:14.309Z,15.70
2022-12-11T12:41:35.561Z,15.30
2022-12-11T12:46:59.200Z,14.30
2022-12-11T12:52:02.859Z,16.10
2022-12-11T12:57:05.554Z,14.80
2022-12-11T13:02:16.653Z,16.50
2022-12-11T13:07:24.601Z,14.10
2022-12-11T13:12:42.009Z,13.30
2022-12-11T13:17:43.679Z,13.10
2022-12-11T13:23:29.175Z,14.00
2022-12-11T13:28:39.658Z,13.50
2022-12-11T13:33:51.957Z,10.50
2022-12-11T13:38:59.272Z,13.50
2022-12-11T13:44:02.389Z,12.30
2022-12-11T13:49:07.081Z,13.80
2022-12-11T13:54:18.069Z,13.60
2022-12-11T13:59:25.722Z,12.70
2022-12-11T14:04:29.328Z,13.10
2022-12-11T14:09:32.050Z,14.00
2022-12-11T14:14:45.528Z,10.80
2022-12-11T14:19:48.806Z,14.70
2022-12-11T14:25:27.183Z,13.30
2022-12-11T14:30:33.285Z,12.50
2022-12-11T14:35:41.974Z,15.40
2022-12-11T14:40:47.399Z,12.10
2022-12-11T14:45:54.284Z,14.20
2022-12-11T14:51:01.680Z,16.20
2022-12-11T14:56:07.255Z,13.90
2022-12-11T15:01:28.298Z,13.00
2022-12-11T15:06:33.212Z,13.10
2022-12-11T15:11:35.084Z,13.60
2022-12-11T15:16:40.513Z,14.20
2022-12-11T15:21:42.488Z,16.20
2022-12-11T15:26:46.593Z,16.80
2022-12-11T15:31:59.859Z,15.30
2022-12-11T15:37:01.682Z,15.80
2022-12-11T15:42:05.737Z,16.30
2022-12-11T15:47:22.082Z,15.80
2022-12-11T15:52:23.964Z,15.90
2022-12-11T15:57:26.621Z,15.30
2022-12-11T16:02:28.511Z,16.30
2022-12-11T16:07:31.174Z,15.90
2022-12-11T16:12:32.881Z,16.00
2022-12-11T16:17:34.558Z,12.90
2022-12-11T16:22:36.506Z,14.50
2022-12-11T16:27:38.149Z,16.40
2022-12-11T16:32:39.829Z,12.80
2022-12-11T16:37:41.562Z,15.10
2022-12-11T16:42:43.601Z,14.30
2022-12-11T16:47:45.314Z,15.90
2022-12-11T16:52:47.391Z,13.90
2022-12-11T16:57:49.317Z,16.60
2022-12-11T17:02:51.174Z,17.70
2022-12-11T17:07:53.085Z,17.20
2022-12-11T17:12:55.242Z,15.60
2022-12-11T17:17:57.150Z,16.60
2022-12-11T17:22:58.967Z,17.60
2022-12-11T17:28:00.713Z,14.90
2022-12-11T17:33:02.843Z,14.20
2022-12-11T17:38:05.081Z,13.10
2022-12-11T17:43:09.432Z,14.60
2022-12-11T17:48:12.246Z,11.60
2022-12-11T17:53:15.995Z,14.60
2022-12-11T17:58:20.619Z,12.50
2022-12-11T18:03:22.651Z,12.60
2022-12-11T18:08:27.178Z,14.20
2022-12-11T18:13:29.136Z,13.70
2022-12-11T18:18:31.434Z,16.80
2022-12-11T18:23:34.228Z,16.70
2022-12-11T18:28:36.042Z,16.60
2022-12-11T18:33:39.609Z,16.70
2022-12-11T18:38:42.596Z,16.30
2022-12-11T18:43:44.968Z,14.90
2022-12-11T18:48:48.313Z,15.90
2022-12-11T18:53:51.266Z,17.20
2022-12-11T18:58:53.199Z,16.00
2022-12-11T19:04:02.654Z,16.30
2022-12-11T19:09:09.111Z,15.10
2022-12-11T19:14:11.814Z,13.00
2022-12-11T19:19:16.464Z,13.40
2022-12-11T19:24:20.883Z,12.00
2022-12-11T19:29:28.614Z,12.50
2022-12-11T19:34:31.023Z,11.90
2022-12-11T19:39:32.868Z,15.20
2022-12-11T19:44:34.725Z,13.30
2022-12-11T19:49:36.622Z,11.10
2022-12-11T19:54:38.974Z,13.30
2022-12-11T19:59:42.467Z,12.60
2022-12-11T20:04:44.437Z,14.80
2022-12-11T20:09:46.296Z,12.50
2022-12-11T20:14:48.126Z,13.10
2022-12-11T20:19:49.902Z,13.30
2022-12-11T20:24:51.760Z,12.20
2022-12-11T20:29:53.600Z,11.90
2022-12-11T20:34:57.122Z,13.60
2022-12-11T20:39:59.875Z,15.00
2022-12-11T20:45:01.809Z,13.40
2022-12-11T20:50:04.467Z,11.70
2022-12-11T20:55:06.901Z,12.90
2022-12-11T21:00:09.537Z,15.30
2022-12-11T21:05:11.570Z,12.80
2022-12-11T21:10:13.977Z,13.00
2022-12-11T21:15:15.749Z,14.60
2022-12-11T21:20:17.498Z,11.60
2022-12-11T21:25:19.532Z,10.40
2022-12-11T21:30:21.423Z,12.20
2022-12-11T21:35:23.480Z,11.30
2022-12-11T21:40:25.285Z,11.90
2022-12-11T21:50:48.631Z,11.90
2022-12-11T21:55:50.346Z,13.50
2022-12-11T22:00:52.115Z,12.40
2022-12-11T22:05:54.189Z,12.40
2022-12-11T22:10:58.570Z,13.00
2022-12-11T22:16:03.253Z,12.60
2022-12-11T22:21:05.760Z,12.00
2022-12-11T22:26:09.315Z,13.70
2022-12-11T22:31:16.801Z,12.60
2022-12-11T22:36:19.454Z,13.60
2022-12-11T22:41:32.606Z,14.20
2022-12-11T22:46:34.310Z,13.00
2022-12-11T22:51:36.820Z,12.80
2022-12-11T22:56:38.739Z,15.50
2022-12-11T23:01:40.573Z,13.40
2022-12-11T23:06:42.325Z,14.20
2022-12-11T23:11:44.143Z,15.80
2022-12-11T23:16:45.922Z,11.50
2022-12-11T23:21:48.295Z,15.00
2022-12-11T23:26:49.968Z,17.80
2022-12-11T23:31:51.818Z,15.70
2022-12-11T23:36:53.566Z,15.40
2022-12-11T23:41:55.226Z,16.40
2022-12-11T23:46:56.916Z,16.00
2022-12-11T23:51:58.551Z,11.70
2022-12-11T23:57:00.322Z,14.60
